Time;durP1;ratioP1;P1;durP2;ratioP2;P2;SDS_P1;SDS_P2;PMS_P1;PMS_P2;Temp;Humidity;BMP_temperature;BMP_pressure;BME280_temperature;BME280_humidity;BME280_pressure;Samples;Min_cycle;Max_cycle;Signal;HPM_P1;HPM_P2
2022/10/11 00:00:43;;;;;;;;;;;;;;;5.74;71.28;100604.97;5107436;27;20377;-61
2022/10/11 00:03:20;;;;;;;12.57;5.72;;;;;;;5.57;71.75;100595.16;5109818;27;1283262;-60
2022/10/11 00:05:56;;;;;;;;;;;;;;;5.77;71.11;100604.81;5069832;28;20391;-61
2022/10/11 00:08:32;;;;;;;;;;;;;;;5.80;70.05;100602.06;5070326;28;20387;-59
2022/10/11 00:11:16;;;;;;;10.40;5.18;;;;;;;5.58;71.49;100597.75;5010520;28;20391;-60
2022/10/11 00:13:53;;;;;;;;;;;;;;;5.83;70.21;100596.59;5069953;28;21029;-59
2022/10/11 00:16:31;;;;;;;;;;;;;;;5.87;69.76;100598.16;5109539;27;1287399;-61
2022/10/11 00:19:07;;;;;;;8.10;4.78;;;;;;;5.55;70.57;100581.97;5107504;27;1331292;-60
2022/10/11 00:21:43;;;;;;;;;;;;;;;5.79;69.90;100595.00;5070318;28;20379;-59
2022/10/11 00:24:21;;;;;;;9.00;4.90;;;;;;;5.38;70.89;100552.69;5085126;27;1335896;-60
2022/10/11 00:27:01;;;;;;;;;;;;;;;5.73;71.04;100584.66;5070402;28;20734;-62
2022/10/11 00:29:37;;;;;;;11.63;3.90;;;;;;;5.58;71.02;100576.50;5107267;27;1335845;-61
2022/10/11 00:32:12;;;;;;;;;;;;;;;5.83;69.67;100585.94;5110890;27;20373;-58
2022/10/11 00:34:49;;;;;;;;;;;;;;;5.88;68.81;100586.59;5070318;28;20371;-60
2022/10/11 00:37:38;;;;;;;;;;;;;;;5.88;68.56;100583.06;5070558;27;20706;-57
2022/10/11 00:40:16;;;;;;;;;;;;;;;5.88;68.83;100586.59;5070379;28;20379;-60
2022/10/11 00:43:26;;;;;;;;;;;;;;;5.75;69.81;100581.00;5109981;27;20377;-64
2022/10/11 00:46:16;;;;;;;;;;;;;;;5.72;68.09;100561.69;5110982;27;20385;-60
2022/10/11 00:49:06;;;;;;;9.82;4.32;;;;;;;5.13;73.91;100583.88;5102184;27;1257747;-61
2022/10/11 00:51:46;;;;;;;;;;;;;;;5.54;73.21;100574.06;5131613;27;20376;-58
2022/10/11 00:54:26;;;;;;;;;;;;;;;5.69;71.97;100578.66;5123580;27;20381;-59
2022/10/11 00:57:05;;;;;;;;;;;;;;;5.94;69.44;100581.91;5070511;28;20391;-61
2022/10/11 00:59:55;;;;;;;;;;;;;;;5.90;69.11;100583.84;5069991;28;20386;-60
2022/10/11 01:02:30;;;;;;;;;;;;;;;5.88;68.95;100580.41;5070410;28;20672;-59
2022/10/11 01:05:09;;;;;;;8.65;3.35;;;;;;;5.73;70.13;100576.69;5106848;27;1316550;-58
2022/10/11 01:07:46;;;;;;;7.03;3.92;;;;;;;5.60;70.73;100579.94;5110380;27;1253292;-60
2022/10/11 01:10:22;;;;;;;;;;;;;;;5.80;70.53;100580.78;5070253;28;20376;-61
2022/10/11 01:12:58;;;;;;;;;;;;;;;5.84;69.37;100582.34;5090469;28;21143;-60
2022/10/11 01:15:42;;;;;;;;;;;;;;;5.83;69.16;100585.06;5056053;27;20419;-59
2022/10/11 01:18:32;;;;;;;;;;;;;;;6.20;67.33;100579.78;5090643;27;20375;-58
2022/10/11 01:21:31;;;;;;;8.82;3.47;;;;;;;5.98;68.39;100572.81;5110081;27;1282024;-57
2022/10/11 01:24:27;;;;;;;8.93;3.80;;;;;;;5.77;70.05;100575.59;5090649;27;1652638;-57
2022/10/11 01:27:24;;;;;;;;;;;;;;;5.82;69.25;100573.59;5090016;27;20481;-58
2022/10/11 01:30:27;;;;;;;7.70;3.50;;;;;;;5.51;70.18;100574.22;5109715;27;1281600;-59
2022/10/11 01:33:34;;;;;;;9.23;3.92;;;;;;;5.44;70.72;100570.97;5109462;27;1293476;-58
2022/10/11 01:36:26;;;;;;;;;;;;;;;5.65;69.36;100570.91;5070370;28;20575;-58
2022/10/11 01:39:15;;;;;;;12.18;4.47;;;;;;;5.41;70.34;100564.00;5089772;27;20709;-58
2022/10/11 01:41:54;;;;;;;;;;;;;;;5.57;70.37;100579.22;5131445;27;20378;-60
2022/10/11 01:44:33;;;;;;;;;;;;;;;5.57;69.69;100574.78;5131046;27;20349;-60
2022/10/11 01:47:09;;;;;;;9.70;3.90;;;;;;;5.23;70.75;100576.34;5090097;27;20367;-59
2022/10/11 01:49:51;;;;;;;;;;;;;;;5.40;70.42;100574.72;5070309;28;20371;-57
2022/10/11 01:52:31;;;;;;;5.25;3.25;;;;;;;5.12;70.82;100571.53;5130944;27;20814;-59
2022/10/11 01:55:08;;;;;;;5.50;3.55;;;;;;;5.01;71.88;100572.03;5108932;27;1264420;-58
2022/10/11 01:58:10;;;;;;;5.10;3.80;;;;;;;4.95;72.60;100567.00;5109882;27;20384;-60
2022/10/11 02:01:22;;;;;;;9.52;4.28;;;;;;;4.94;72.60;100572.38;5130768;27;20336;-57
2022/10/11 02:04:06;;;;;;;7.85;3.67;;;;;;;4.80;72.93;100567.69;5130691;27;20395;-58
2022/10/11 02:06:45;;;;;;;;;;;;;;;5.05;72.56;100570.09;5070553;28;20379;-56
2022/10/11 02:09:53;;;;;;;7.30;4.20;;;;;;;4.85;72.61;100565.72;5089992;27;20386;-60
2022/10/11 02:12:38;;;;;;;;;;;;;;;5.03;72.12;100574.63;5070030;28;20380;-55
2022/10/11 02:15:16;;;;;;;10.50;4.07;;;;;;;4.79;72.73;100568.63;5107345;27;1356404;-61
2022/10/11 02:18:02;;;;;;;;;;;;;;;4.97;72.56;100573.09;5090217;27;20386;-67
2022/10/11 02:20:40;;;;;;;;;;;;;;;5.03;71.65;100571.97;5131208;27;20336;-57
2022/10/11 02:23:18;;;;;;;;;;;;;;;5.05;70.92;100575.41;5070469;28;20375;-58
2022/10/11 02:26:02;;;;;;;6.90;3.58;;;;;;;4.76;72.40;100576.72;5025318;28;20380;-60
2022/10/11 02:28:41;;;;;;;;;;;;;;;4.94;71.51;100572.38;5070143;28;20706;-61
2022/10/11 02:31:19;;;;;;;7.75;3.90;;;;;;;4.70;72.56;100585.81;5110640;27;20380;-60
2022/10/11 02:34:04;;;;;;;;;;;;;;;4.89;72.05;100580.56;5151818;27;20560;-60
2022/10/11 02:37:00;;;;;;;9.30;4.10;;;;;;;4.64;72.63;100578.13;5070150;28;20833;-58
2022/10/11 02:39:57;;;;;;;;;;;;;;;4.78;73.15;100581.03;5026395;28;20136;-57
2022/10/11 02:42:38;;;;;;;9.93;4.75;;;;;;;4.56;73.31;100570.50;5114831;27;1260002;-58
2022/10/11 02:45:19;;;;;;;8.63;4.78;;;;;;;4.50;73.37;100576.94;5108013;27;1338433;-65
2022/10/11 02:47:57;;;;;;;13.18;5.00;;;;;;;4.44;74.29;100577.19;5110131;27;20377;-57
2022/10/11 02:50:33;;;;;;;;;;;;;;;4.76;72.98;100572.28;5090889;27;20379;-59
2022/10/11 02:53:10;;;;;;;11.90;5.28;;;;;;;4.54;72.94;100572.34;5070214;28;20391;-57
2022/10/11 02:55:48;;;;;;;;;;;;;;;4.80;73.04;100580.94;5090572;27;20374;-59
2022/10/11 02:58:25;;;;;;;14.32;5.70;;;;;;;4.52;72.91;100585.69;5154401;27;20331;-58
2022/10/11 03:01:00;;;;;;;14.20;5.20;;;;;;;4.45;73.33;100579.78;5104237;27;1448021;-54
2022/10/11 03:03:39;;;;;;;;;;;;;;;4.70;73.20;100583.16;5090635;27;20382;-58
2022/10/11 03:06:16;;;;;;;;;;;;;;;4.77;72.27;100578.44;5070100;28;20380;-57
2022/10/11 03:08:51;;;;;;;11.85;5.10;;;;;;;4.49;73.00;100579.66;5109086;27;1283025;-55
2022/10/11 03:11:35;;;;;;;;;;;;;;;4.67;72.15;100577.97;5110946;27;20400;-55
2022/10/11 03:14:20;;;;;;;;;;;;;;;4.72;72.03;100582.16;5069705;28;20387;-58
2022/10/11 03:17:05;;;;;;;;;;;;;;;4.71;70.87;100574.28;5070262;28;21284;-58
2022/10/11 03:19:49;;;;;;;;;;;;;;;4.71;70.91;100580.44;5070077;28;20383;-56
2022/10/11 03:32:56;;;;;;;12.52;4.70;;;;;;;4.45;71.70;100576.25;6020042;22;1462277;-55
2022/10/11 03:35:45;;;;;;;;;;;;;;;4.61;71.48;100568.53;5131672;27;20341;-55
2022/10/11 03:38:35;;;;;;;;;;;;;;;4.64;70.70;100571.03;5070048;28;20384;-56
2022/10/11 03:41:13;;;;;;;11.02;4.82;;;;;;;4.27;72.64;100552.28;5100481;27;1551413;-58
2022/10/11 03:43:55;;;;;;;10.18;5.32;;;;;;;4.02;73.59;100520.63;5110457;27;20369;-56
2022/10/11 03:46:42;;;;;;;13.32;5.63;;;;;;;4.24;74.30;100559.50;5070123;28;20375;-56
2022/10/11 03:49:24;;;;;;;;;;;;;;;4.51;73.33;100564.53;5006800;28;20384;-56
2022/10/11 03:52:03;;;;;;;;;;;;;;;4.59;72.21;100552.66;5070215;28;20376;-55
2022/10/11 03:54:51;;;;;;;12.63;5.70;;;;;;;4.35;73.50;100551.97;5089952;27;20832;-56
2022/10/11 03:57:27;;;;;;;10.00;5.45;;;;;;;4.33;73.99;100548.47;5089748;27;20078;-60
2022/10/11 04:00:12;;;;;;;;;;;;;;;4.60;73.10;100556.19;5090476;27;20717;-56
2022/10/11 04:02:58;;;;;;;;;;;;;;;4.71;72.62;100548.59;5069947;28;20379;-53
2022/10/11 04:05:42;;;;;;;;;;;;;;;4.78;71.54;100543.00;5070232;28;20708;-58
2022/10/11 04:08:26;;;;;;;8.90;5.03;;;;;;;4.47;72.12;100534.66;5069825;28;20370;-59
2022/10/11 04:11:15;;;;;;;10.27;5.38;;;;;;;4.47;72.67;100547.03;5066663;27;20438;-61
2022/10/11 04:13:56;;;;;;;8.70;5.25;;;;;;;4.40;73.20;100542.00;5089642;27;20720;-57
2022/10/11 04:16:32;;;;;;;9.77;5.10;;;;;;;4.43;73.47;100549.81;5070116;28;20372;-56
2022/10/11 04:19:11;;;;;;;9.55;5.28;;;;;;;4.51;73.18;100553.94;5089642;27;20732;-59
2022/10/11 04:21:51;;;;;;;;;;;;;;;4.85;72.90;100550.63;5070359;28;20680;-59
2022/10/11 04:24:39;;;;;;;;;;;;;;;5.01;72.73;100549.94;5070558;28;20399;-61
2022/10/11 04:27:19;;;;;;;;;;;;;;;5.12;71.56;100554.78;5070695;28;20388;-62
2022/10/11 04:29:59;;;;;;;6.70;4.00;;;;;;;4.87;71.93;100548.78;5090224;27;20848;-61
2022/10/11 04:32:47;;;;;;;;;;;;;;;5.23;71.32;100555.13;5131345;27;20341;-58
2022/10/11 04:35:27;;;;;;;8.85;4.43;;;;;;;5.13;71.57;100557.34;5110671;27;20373;-60
2022/10/11 04:38:05;;;;;;;10.05;4.25;;;;;;;5.32;71.33;100554.69;5109125;27;1297914;-60
2022/10/11 04:40:41;;;;;;;;;;;;;;;6.23;71.01;100547.69;5070408;28;20371;-56
2022/10/11 04:43:23;;;;;;;;;;;;;;;7.17;68.21;100548.09;5070578;28;20379;-56
2022/10/11 04:46:10;;;;;;;;;;;;;;;7.97;65.66;100552.53;5070655;28;20375;-55
2022/10/11 04:48:53;;;;;;;;;;;;;;;8.46;62.88;100546.09;5070068;28;20376;-61
2022/10/11 04:51:42;;;;;;;;;;;;;;;9.30;61.15;100543.66;5069754;28;20884;-59
2022/10/11 04:54:18;;;;;;;;;;;;;;;10.69;58.06;100538.09;5107014;27;20389;-54
2022/10/11 04:57:00;;;;;;;;;;;;;;;12.08;54.41;100547.84;5070490;28;20372;-62
2022/10/11 04:59:50;;;;;;;;;;;;;;;14.31;50.59;100537.31;5070556;28;20849;-63
2022/10/11 05:02:24;;;;;;;6.50;3.20;;;;;;;16.39;41.59;100539.69;5114128;27;1253364;-61
2022/10/11 05:05:16;;;;;;;5.40;3.40;;;;;;;18.10;37.45;100536.81;5007086;28;20564;-61
2022/10/11 05:08:00;;;;;;;;;;;;;;;19.99;40.36;100535.22;5130853;27;20726;-62
2022/10/11 05:11:06;;;;;;;;;;;;;;;21.43;33.92;100533.75;5069855;28;20376;-61
2022/10/11 05:13:45;;;;;;;;;;;;;;;22.86;36.78;100536.09;5090324;27;20374;-62
2022/10/11 05:16:21;;;;;;;8.90;3.80;;;;;;;23.55;27.34;100536.84;5107710;27;1332007;-62
2022/10/11 05:19:05;;;;;;;;;;;;;;;25.71;32.15;100529.19;5110214;27;20381;-66
2022/10/11 05:21:51;;;;;;;;;;;;;;;26.90;31.21;100530.53;5070321;28;20426;-56
2022/10/11 05:24:33;;;;;;;;;;;;;;;27.86;29.31;100532.69;5090539;27;20389;-54
2022/10/11 05:27:12;;;;;;;;;;;;;;;27.93;28.09;100531.56;5070477;28;20368;-59
2022/10/11 05:29:57;;;;;;;7.90;3.80;;;;;;;27.18;21.50;100532.13;5045769;28;20396;-60
2022/10/11 05:32:42;;;;;;;5.85;3.65;;;;;;;27.89;20.17;100526.75;5069771;28;20376;-60
2022/10/11 05:35:26;;;;;;;10.60;3.65;;;;;;;28.36;19.23;100529.16;5090159;27;20701;-63
2022/10/11 05:38:12;;;;;;;7.38;3.47;;;;;;;28.49;18.54;100531.81;5064868;27;2142908;-64
2022/10/11 05:40:49;;;;;;;8.77;3.85;;;;;;;29.16;18.08;100523.91;5069841;28;20384;-63
2022/10/11 05:43:34;;;;;;;8.30;3.70;;;;;;;30.02;17.24;100525.78;5069914;27;20703;-60
2022/10/11 05:46:18;;;;;;;6.13;4.10;;;;;;;30.68;15.99;100522.97;5069928;28;20371;-63
2022/10/11 05:49:07;;;;;;;7.35;4.03;;;;;;;31.36;15.61;100511.44;5151317;27;20347;-63
2022/10/11 05:51:42;;;;;;;7.95;4.07;;;;;;;32.04;15.03;100519.06;5107118;27;1297402;-62
2022/10/11 05:54:30;;;;;;;7.53;3.97;;;;;;;32.75;14.28;100518.53;5090077;27;20129;-64
2022/10/11 05:57:07;;;;;;;5.72;3.97;;;;;;;33.34;14.07;100519.03;5110945;27;1256946;-64
2022/10/11 05:59:47;;;;;;;5.32;4.18;;;;;;;33.75;13.34;100515.88;5069335;28;20390;-65
2022/10/11 06:02:27;;;;;;;7.32;4.40;;;;;;;34.43;12.87;100515.38;5070149;28;20387;-63
2022/10/11 06:05:16;;;;;;;5.75;4.22;;;;;;;35.17;12.21;100506.34;5093929;27;1406421;-64
2022/10/11 06:07:53;;;;;;;5.70;4.05;;;;;;;35.66;11.69;100502.34;5193636;27;20417;-63
2022/10/11 06:10:31;;;;;;;7.38;3.90;;;;;;;36.16;11.30;100511.03;5107771;27;1319625;-63
2022/10/11 06:13:11;;;;;;;8.43;3.83;;;;;;;36.38;10.78;100506.28;5070119;28;20372;-64
2022/10/11 06:15:46;;;;;;;5.60;3.80;;;;;;;36.47;10.75;100493.44;4427813;27;20924042;-64
2022/10/11 06:18:36;;;;;;;9.63;5.45;;;;;;;36.24;10.80;100503.22;5090199;27;20386;-62
2022/10/11 06:21:40;;;;;;;7.40;4.03;;;;;;;36.76;10.44;100496.44;5193722;27;20502;-63
2022/10/11 06:24:35;;;;;;;7.38;4.35;;;;;;;37.04;10.34;100487.72;5151564;27;20391;-64
2022/10/11 06:27:37;;;;;;;9.15;4.35;;;;;;;36.69;10.41;100473.63;5132906;27;20421;-62
2022/10/11 06:30:27;;;;;;;6.28;3.97;;;;;;;37.38;9.96;100498.16;5101328;27;20402;-62
2022/10/11 06:33:21;;;;;;;9.23;3.95;;;;;;;37.46;9.87;100499.50;5193787;27;20510;-62
2022/10/11 06:36:13;;;;;;;8.48;4.65;;;;;;;37.43;9.98;100497.28;5090134;27;20855;-63
2022/10/11 06:39:00;;;;;;;11.43;4.30;;;;;;;37.91;9.66;100486.34;4409426;27;21140415;-64
2022/10/11 06:41:53;;;;;;;5.90;3.95;;;;;;;37.71;9.64;100489.31;5193804;27;20424;-64
2022/10/11 06:44:29;;;;;;;6.80;4.72;;;;;;;33.25;12.38;100490.91;4508116;27;18641440;-62
2022/10/11 06:47:19;;;;;;;7.43;3.67;;;;;;;37.31;9.74;100492.88;5090785;27;20386;-64
2022/10/11 06:50:14;;;;;;;9.05;4.13;;;;;;;38.22;9.62;100487.22;5129641;27;20489;-64
2022/10/11 06:53:08;;;;;;;5.03;3.92;;;;;;;38.69;8.82;100487.56;5193924;27;20408;-65
2022/10/11 06:56:13;;;;;;;4.95;4.00;;;;;;;38.99;8.92;100474.38;5138658;27;20706;-64
2022/10/11 06:59:05;;;;;;;6.40;3.63;;;;;;;39.28;8.78;100487.44;5131116;27;20355;-64
2022/10/11 07:02:01;;;;;;;5.35;3.85;;;;;;;39.07;8.57;100478.47;5114155;27;20442;-64
2022/10/11 07:04:51;;;;;;;4.95;3.28;;;;;;;39.06;8.67;100480.44;5090269;27;20398;-61
2022/10/11 07:07:48;;;;;;;8.27;4.10;;;;;;;38.94;8.69;100482.81;5151743;27;21004;-65
2022/10/11 07:10:36;;;;;;;6.80;4.05;;;;;;;38.59;9.16;100488.56;4489142;27;18640549;-65
2022/10/11 07:13:29;;;;;;;5.97;3.40;;;;;;;37.39;9.79;100487.81;5091115;27;20668;-64
2022/10/11 07:16:36;;;;;;;4.40;3.53;;;;;;;37.18;10.16;100490.72;5129097;27;20341;-59
2022/10/11 07:19:46;;;;;;;3.72;3.08;;;;;;;36.95;9.36;100493.03;5127757;27;20367;-59
2022/10/11 07:22:35;;;;;;;5.82;3.35;;;;;;;36.09;10.37;100470.63;5090122;27;20844;-61
2022/10/11 07:25:43;;;;;;;6.32;2.83;;;;;;;35.75;10.26;100486.75;5029816;27;20696;-63
2022/10/11 07:28:39;;;;;;;2.70;2.50;;;;;;;35.85;10.54;100472.00;5130184;27;20123;-60
2022/10/11 07:31:32;;;;;;;4.93;3.30;;;;;;;35.41;10.95;100476.09;5192635;27;20412;-61
2022/10/11 07:34:32;;;;;;;7.00;3.30;;;;;;;33.24;12.57;100483.69;5131900;27;20417;-61
2022/10/11 07:37:25;;;;;;;4.35;2.45;;;;;;;29.74;14.35;100469.28;5119845;27;20862;-60
2022/10/11 07:40:24;;;;;;;4.85;2.30;;;;;;;25.65;18.92;100473.28;5119907;27;20391;-61
2022/10/11 07:43:14;;;;;;;4.28;3.03;;;;;;;22.96;21.67;100470.28;5130895;27;20413;-60
2022/10/11 07:46:06;;;;;;;4.65;2.80;;;;;;;20.68;24.50;100474.13;5089513;27;20392;-61
2022/10/11 07:49:08;;;;;;;6.68;3.60;;;;;;;18.65;27.74;100469.75;5131910;27;20370;-60
2022/10/11 07:52:02;;;;;;;4.82;3.28;;;;;;;17.14;30.43;100463.19;5193461;27;20416;-61
2022/10/11 07:54:52;;;;;;;;;;;;;;;17.27;28.58;100468.22;5092502;27;20406;-60
2022/10/11 07:57:54;;;;;;;;;;;;;;;16.45;29.60;100476.09;5132468;27;20386;-58
2022/10/11 08:00:51;;;;;;;;;;;;;;;15.77;31.67;100477.84;5090378;27;20738;-59
2022/10/11 08:03:26;;;;;;;7.97;3.20;;;;;;;14.89;35.05;100467.75;4534763;27;17918510;-56
2022/10/11 08:06:18;;;;;;;;;;;;;;;14.87;32.94;100465.19;5090319;27;20500;-55
2022/10/11 08:09:25;;;;;;;;;;;;;;;14.60;32.91;100469.31;5190561;27;20464;-57
2022/10/11 08:12:32;;;;;;;;;;;;;;;14.23;35.47;100469.78;5131444;27;20417;-64
2022/10/11 08:15:28;;;;;;;;;;;;;;;14.14;36.03;100463.34;5193054;27;20415;-63
2022/10/11 08:18:26;;;;;;;;;;;;;;;14.21;34.00;100463.69;5132625;27;20370;-62
2022/10/11 08:21:17;;;;;;;6.80;3.05;;;;;;;13.45;38.01;100468.19;5091238;27;20953;-63
2022/10/11 08:24:20;;;;;;;;;;;;;;;13.59;36.87;100458.97;5030170;27;20429;-64
2022/10/11 08:27:13;;;;;;;;;;;;;;;13.95;34.49;100458.69;5131766;27;20128;-64
2022/10/11 08:30:04;;;;;;;4.30;2.33;;;;;;;13.30;37.86;100462.22;5090649;27;20386;-63
2022/10/11 08:32:55;;;;;;;;;;;;;;;13.48;35.43;100450.94;5131783;27;20347;-63
2022/10/11 08:35:56;;;;;;;7.03;2.50;;;;;;;13.05;39.22;100440.03;5132074;27;20378;-64
2022/10/11 08:38:53;;;;;;;7.75;2.63;;;;;;;12.98;39.10;100443.31;5151608;27;20865;-63
2022/10/11 08:41:51;;;;;;;;;;;;;;;13.31;37.22;100441.53;5090802;27;20413;-62
2022/10/11 08:44:35;;;;;;;4.05;2.00;;;;;;;13.15;38.16;100440.13;5089776;28;20014;-63
2022/10/11 08:47:09;;;;;;;6.20;2.40;;;;;;;12.98;38.19;100436.09;5089212;28;20044;-63
2022/10/11 08:49:36;;;;;;;2.22;1.90;;;;;;;12.98;37.43;100433.41;5071949;28;20423;-63
2022/10/11 08:52:06;;;;;;;5.85;2.30;;;;;;;12.68;37.85;100415.28;5090109;28;20024;-62
2022/10/11 08:54:42;;;;;;;6.53;2.33;;;;;;;12.80;37.54;100432.25;5090095;28;20047;-64
2022/10/11 08:57:13;;;;;;;4.07;2.30;;;;;;;12.65;37.97;100427.09;5088895;28;20031;-62
2022/10/11 09:00:01;;;;;;;3.65;2.30;;;;;;;12.77;37.56;100418.03;5089776;28;20101;-63
2022/10/11 09:02:54;;;;;;;5.35;2.63;;;;;;;12.83;37.64;100415.88;5088888;28;20115;-64
2022/10/11 09:05:24;;;;;;;5.57;2.25;;;;;;;12.77;37.30;100409.97;5089491;28;20047;-62
2022/10/11 09:08:01;;;;;;;3.42;2.28;;;;;;;12.75;37.16;100417.31;5088753;28;20047;-63
2022/10/11 09:10:36;;;;;;;4.88;2.42;;;;;;;12.82;37.80;100416.84;5089557;28;20064;-64
2022/10/11 09:13:30;;;;;;;7.75;2.83;;;;;;;12.73;38.07;100400.47;5089772;28;20116;-64
2022/10/11 09:16:25;;;;;;;5.50;2.33;;;;;;;12.84;37.96;100404.97;5089520;28;20040;-64
2022/10/11 09:19:31;;;;;;;4.68;2.30;;;;;;;12.95;37.67;100401.41;5089326;28;20044;-62
2022/10/11 09:22:02;;;;;;;4.90;2.33;;;;;;;12.97;37.05;100393.25;5089152;28;20028;-61
2022/10/11 09:24:47;;;;;;;5.03;2.47;;;;;;;12.97;37.19;100398.63;5089199;28;20459;-64
2022/10/11 09:27:35;;;;;;;5.32;2.47;;;;;;;12.97;37.38;100404.00;5088332;28;20039;-63
2022/10/11 09:30:03;;;;;;;4.75;2.30;;;;;;;12.95;36.87;100395.19;5089053;28;20082;-63
2022/10/11 09:32:34;;;;;;;5.78;2.83;;;;;;;12.89;37.30;100385.78;5089045;28;20020;-62
2022/10/11 09:35:17;;;;;;;6.22;2.22;;;;;;;12.92;37.26;100393.59;5089172;28;20028;-64
2022/10/11 09:38:05;;;;;;;4.85;2.45;;;;;;;13.00;36.94;100385.75;5088909;28;20043;-62
2022/10/11 09:40:44;;;;;;;4.80;2.60;;;;;;;12.92;37.75;100380.16;5088667;28;20152;-62
2022/10/11 09:43:10;;;;;;;6.40;2.92;;;;;;;12.90;37.21;100374.06;5088893;28;20036;-63
2022/10/11 09:45:43;;;;;;;7.53;2.95;;;;;;;12.90;37.19;100374.94;5088743;28;20466;-63
2022/10/11 09:48:15;;;;;;;6.97;2.30;;;;;;;12.89;37.28;100375.06;5088934;28;20040;-63
2022/10/11 09:50:41;;;;;;;5.65;2.40;;;;;;;12.86;37.15;100369.94;5069950;28;20417;-63
2022/10/11 09:53:07;;;;;;;6.15;2.53;;;;;;;12.86;36.93;100359.19;5075074;28;20029;-62
2022/10/11 09:55:46;;;;;;;7.50;2.70;;;;;;;12.99;37.10;100362.53;5074482;28;20357;-63
2022/10/11 09:58:37;;;;;;;4.45;2.50;;;;;;;13.11;36.69;100367.91;5075057;28;20094;-65
2022/10/11 10:01:07;;;;;;;4.13;2.40;;;;;;;13.03;36.73;100364.03;5071049;28;20109;-65
2022/10/11 10:03:41;;;;;;;4.03;2.20;;;;;;;13.09;36.33;100364.50;5074961;28;20473;-63
2022/10/11 10:06:08;;;;;;;5.72;2.60;;;;;;;12.95;36.31;100346.81;5074318;28;20044;-62
2022/10/11 10:08:35;;;;;;;5.50;2.33;;;;;;;13.03;36.30;100364.03;5074912;28;20044;-64
2022/10/11 10:11:06;;;;;;;7.32;2.50;;;;;;;13.03;35.77;100358.66;5075006;28;20056;-63
2022/10/11 10:13:54;;;;;;;3.67;1.88;;;;;;;13.07;35.17;100357.41;5075214;28;20370;-62
2022/10/11 10:16:34;;;;;;;3.53;1.98;;;;;;;12.96;35.00;100344.00;5074900;28;20427;-64
2022/10/11 10:19:18;;;;;;;5.55;2.28;;;;;;;13.03;34.72;100355.97;5074750;28;20032;-63
2022/10/11 10:21:49;;;;;;;4.97;2.10;;;;;;;12.97;34.38;100336.81;5075015;28;20039;-63
2022/10/11 10:24:34;;;;;;;5.20;1.83;;;;;;;13.10;34.31;100350.06;5075039;28;20156;-63
2022/10/11 10:27:09;;;;;;;4.00;2.03;;;;;;;12.97;33.65;100339.47;5074657;28;20044;-63
2022/10/11 10:29:36;;;;;;;;;;;;;;;13.18;33.84;100336.84;5075027;28;20040;-64
2022/10/11 10:32:07;;;;;;;;;;;;;;;13.31;33.76;100331.28;5075122;28;19923;-63
2022/10/11 10:34:35;;;;;;;3.45;1.77;;;;;;;13.05;33.32;100332.50;5074374;28;19920;-63
2022/10/11 10:37:30;;;;;;;5.65;2.28;;;;;;;13.06;33.69;100331.50;5073203;28;20182;-63
2022/10/11 10:40:02;;;;;;;4.03;2.05;;;;;;;12.95;33.84;100317.25;5062718;28;20053;-64
2022/10/11 10:42:29;;;;;;;7.55;2.40;;;;;;;12.98;33.44;100320.53;5064919;28;20045;-62
2022/10/11 10:44:57;;;;;;;6.93;2.47;;;;;;;12.91;34.02;100324.72;5074341;28;20047;-62
2022/10/11 10:47:56;;;;;;;6.47;2.80;;;;;;;12.96;34.58;100327.88;5074016;28;20071;-64
2022/10/11 10:50:45;;;;;;;7.28;3.20;;;;;;;12.93;34.51;100312.00;5059300;28;20045;-62
2022/10/11 10:53:28;;;;;;;7.25;3.00;;;;;;;12.98;34.88;100311.63;5053745;28;20065;-62
2022/10/11 10:56:16;;;;;;;6.57;3.25;;;;;;;13.05;34.49;100316.38;5054003;28;20451;-64
2022/10/11 10:59:08;;;;;;;8.65;2.70;;;;;;;13.01;33.61;100303.31;5054963;28;20479;-65
2022/10/11 11:02:00;;;;;;;8.65;3.00;;;;;;;13.03;34.37;100304.91;5054328;28;20109;-64
2022/10/11 11:04:25;;;;;;;4.40;2.60;;;;;;;12.94;34.33;100294.06;5058932;28;20045;-64
2022/10/11 11:07:09;;;;;;;5.82;2.75;;;;;;;12.94;34.36;100286.00;5073669;28;20461;-63
2022/10/11 11:09:54;;;;;;;5.47;2.60;;;;;;;12.97;34.15;100286.56;5067566;28;20043;-63
2022/10/11 11:12:29;;;;;;;8.18;3.00;;;;;;;12.98;34.56;100290.13;5053517;28;20592;-63
2022/10/11 11:15:13;;;;;;;6.03;2.33;;;;;;;12.97;34.11;100297.31;5052473;28;20048;-64
2022/10/11 11:17:51;;;;;;;8.10;2.60;;;;;;;12.97;33.91;100288.41;5054023;28;20025;-66
2022/10/11 11:20:26;;;;;;;6.30;2.80;;;;;;;12.94;34.13;100281.44;5065016;28;20372;-63
2022/10/11 11:23:01;;;;;;;7.97;2.50;;;;;;;12.88;34.16;100273.91;5072934;28;20459;-64
2022/10/11 11:25:33;;;;;;;5.77;2.70;;;;;;;12.89;34.11;100273.75;5066858;28;20055;-64
2022/10/11 11:28:24;;;;;;;5.65;2.60;;;;;;;12.93;33.24;100277.06;5061269;28;21175;-64
2022/10/11 11:30:55;;;;;;;5.30;2.58;;;;;;;12.84;32.78;100267.09;5064480;28;20140;-63
2022/10/11 11:33:50;;;;;;;5.10;2.40;;;;;;;12.81;33.50;100264.66;5065226;28;20040;-64
2022/10/11 11:36:48;;;;;;;5.03;2.50;;;;;;;12.63;33.66;100238.34;5072792;28;20048;-64
2022/10/11 11:39:29;;;;;;;6.03;2.78;;;;;;;12.69;33.43;100262.00;5072843;28;20055;-63
2022/10/11 11:42:20;;;;;;;7.50;2.58;;;;;;;12.63;33.45;100246.41;5072122;28;20041;-62
2022/10/11 11:44:48;;;;;;;6.43;3.03;;;;;;;12.53;34.21;100258.84;5070322;28;20047;-62
2022/10/11 11:47:38;;;;;;;7.90;2.92;;;;;;;12.52;34.41;100254.47;5052868;28;20045;-64
2022/10/11 11:50:23;;;;;;;6.97;3.22;;;;;;;12.47;34.66;100247.66;5051894;28;20156;-63
2022/10/11 11:53:03;;;;;;;4.88;3.03;;;;;;;12.40;34.74;100250.97;5052731;28;20501;-64
2022/10/11 11:55:41;;;;;;;5.57;2.85;;;;;;;12.28;34.19;100247.44;5060509;28;20042;-65
2022/10/11 11:58:15;;;;;;;4.25;2.25;;;;;;;12.27;32.96;100245.72;5069511;28;20033;-63
2022/10/11 12:01:02;;;;;;;4.00;2.20;;;;;;;12.25;32.95;100242.31;5067492;28;20131;-63
2022/10/11 12:03:38;;;;;;;6.63;2.50;;;;;;;12.26;33.09;100247.59;5072468;28;20470;-65
2022/10/11 12:06:12;;;;;;;5.60;2.40;;;;;;;12.24;33.37;100240.63;5060021;28;20045;-63
2022/10/11 12:08:47;;;;;;;7.72;2.42;;;;;;;12.16;33.92;100236.72;5052826;28;20459;-63
2022/10/11 12:11:23;;;;;;;3.63;2.28;;;;;;;12.18;33.85;100234.78;5052800;28;20029;-63
2022/10/11 12:13:51;;;;;;;7.03;2.80;;;;;;;12.18;33.92;100236.63;5052415;28;20461;-63
2022/10/11 12:16:17;;;;;;;10.55;2.30;;;;;;;12.09;34.20;100231.97;5066453;28;20060;-67
2022/10/11 12:19:02;;;;;;;5.95;2.42;;;;;;;12.13;34.30;100228.94;5071153;28;20076;-63
2022/10/11 12:21:39;;;;;;;5.25;2.60;;;;;;;12.08;35.21;100220.41;5055041;28;20456;-64
2022/10/11 12:24:23;;;;;;;7.25;2.90;;;;;;;12.04;36.22;100218.91;5052255;28;20471;-63
2022/10/11 12:26:54;;;;;;;6.82;2.58;;;;;;;11.94;37.44;100218.81;5070595;28;20032;-63
2022/10/11 12:29:25;;;;;;;8.90;2.92;;;;;;;11.92;37.42;100213.53;5072614;28;20036;-62
2022/10/11 12:32:00;;;;;;;8.60;3.17;;;;;;;11.90;37.79;100210.13;5072649;28;20107;-63
2022/10/11 12:34:38;;;;;;;9.50;3.38;;;;;;;11.97;37.82;100212.31;5070332;28;20370;-64
2022/10/11 12:37:18;;;;;;;8.25;3.55;;;;;;;12.03;37.80;100210.03;5072508;28;20033;-62
2022/10/11 12:40:40;;;;;;;8.27;3.08;;;;;;;12.08;37.45;100206.97;5072697;28;20062;-63
2022/10/11 12:43:28;;;;;;;7.35;3.63;;;;;;;12.09;37.52;100206.00;5072313;28;20115;-62
2022/10/11 12:45:54;;;;;;;10.15;3.05;;;;;;;11.95;37.66;100200.84;5058530;28;20033;-63
2022/10/11 12:48:37;;;;;;;8.95;2.78;;;;;;;12.02;37.66;100210.13;5052425;28;20037;-62
2022/10/11 12:51:27;;;;;;;7.13;2.60;;;;;;;11.97;37.65;100196.22;5052345;28;20072;-62
2022/10/11 12:54:42;;;;;;;4.85;2.65;;;;;;;12.00;37.58;100204.00;5051220;28;20188;-63
2022/10/11 12:57:08;;;;;;;5.80;2.60;;;;;;;11.88;37.82;100204.03;5052338;28;20041;-63
2022/10/11 12:59:37;;;;;;;8.32;2.60;;;;;;;11.78;37.78;100186.97;5052175;28;20037;-63
2022/10/11 13:02:27;;;;;;;11.80;2.88;;;;;;;11.88;37.90;100196.00;5052179;28;20054;-65
2022/10/11 13:05:07;;;;;;;7.57;2.47;;;;;;;11.86;37.90;100189.91;5059136;28;20033;-62
2022/10/11 13:07:34;;;;;;;5.60;2.60;;;;;;;11.77;38.38;100191.47;5052086;28;20024;-63
2022/10/11 13:10:02;;;;;;;9.48;2.78;;;;;;;11.67;38.49;100173.56;5058656;28;20147;-64
2022/10/11 13:12:40;;;;;;;10.43;2.80;;;;;;;11.65;38.08;100164.78;5071864;28;20056;-62